Hannah C — WDH2947 — position and weather

sailwx.info

Track history (hours):
 
Tides and Currents Weather Stations Pressure Air Temp Water Temp Dewpoint Dewpoint Depression Visibility Wind Speed Wind Dir Waves Ship Positions

Hannah C

Owner: REC Marine Logistics, LLC, Galliano, LA. More information available from US FCC via Universal Licensing System and Coast Guard Vessel Documentation Center.

Last reported at 2017-Sep-24 04:37 UTC. Time now 2017-Sep-24 08:38 UTC.
Position N 29°49' W 093°20'.

Length 48 m; draft 3 m.

Type: Cargo ship. MMSI: 367602790.

Date/timePositionNaut miles runAvg speedWind from/ knotsBaromVisibWave heightAir tempDewpointWater temp
2017-Sep-24 04:37N 29°49' W 093°20'0 0.3
2017-Sep-24 04:11N 29°49' W 093°20'0 0.0
2017-Sep-24 03:57N 29°49' W 093°20'0 0.0
2017-Sep-24 03:24N 29°49' W 093°20'  
2017-Sep-19 14:59N 29°49' W 093°20'2 0.1
2017-Sep-18 19:12N 29°48' W 093°20'18 0.4
2017-Sep-17 00:58N 29°32' W 093°09'7 8.8
2017-Sep-17 00:11N 29°37' W 093°14'2 9.7
2017-Sep-17 00:00N 29°39' W 093°15'10 2.1
2017-Sep-16 19:15N 29°48' W 093°20'2 3.9
2017-Sep-16 18:50N 29°49' W 093°20'0 0.0
2017-Sep-16 17:13N 29°49' W 093°20'0 0.0
2017-Sep-16 16:55N 29°49' W 093°20'0 0.0
2017-Sep-16 16:28N 29°49' W 093°20'0 0.5
2017-Sep-16 16:00N 29°49' W 093°21'0 0.0
2017-Sep-14 12:39N 29°49' W 093°20'0 0.0
2017-Sep-14 12:25N 29°49' W 093°20'0 0.0
2017-Sep-14 11:59N 29°49' W 093°20'0 0.0
2017-Sep-14 11:20N 29°49' W 093°20'0 0.0
2017-Sep-14 10:37N 29°49' W 093°20'0 0.0
2017-Sep-14 10:19N 29°49' W 093°20'0 0.0
2017-Sep-14 09:47N 29°49' W 093°20'0 0.0
2017-Sep-14 08:56N 29°49' W 093°20'0 0.0
2017-Sep-14 08:05N 29°49' W 093°20'0 0.1
2017-Sep-14 07:58N 29°49' W 093°20'0 0.0
2017-Sep-14 07:03N 29°49' W 093°20'0 0.0
2017-Sep-14 06:38N 29°49' W 093°20'0 0.0
2017-Sep-14 05:32N 29°49' W 093°20'0 0.0
2017-Sep-14 05:23N 29°49' W 093°20'0 0.0
2017-Sep-14 04:59N 29°49' W 093°20'  
Track history (hours):
 
Tides and Currents Weather Stations Pressure Air Temp Water Temp Dewpoint Dewpoint Depression Visibility Wind Speed Wind Dir Waves Ship Positions

Hannah C

Owner: REC Marine Logistics, LLC, Galliano, LA. More information available from US FCC via Universal Licensing System and Coast Guard Vessel Documentation Center.

Last reported at 2017-Sep-24 04:37 UTC. Time now 2017-Sep-24 08:38 UTC.
Position N 29°49' W 093°20'.

Length 48 m; draft 3 m.

Type: Cargo ship. MMSI: 367602790.

Date/timePositionNaut miles runAvg speedWind from/ knotsBaromVisibWave heightAir tempDewpointWater temp
2017-Sep-24 04:37N 29°49' W 093°20'0 0.3
2017-Sep-24 04:11N 29°49' W 093°20'0 0.0
2017-Sep-24 03:57N 29°49' W 093°20'0 0.0
2017-Sep-24 03:24N 29°49' W 093°20'  
2017-Sep-19 14:59N 29°49' W 093°20'2 0.1
2017-Sep-18 19:12N 29°48' W 093°20'18 0.4
2017-Sep-17 00:58N 29°32' W 093°09'7 8.8
2017-Sep-17 00:11N 29°37' W 093°14'2 9.7
2017-Sep-17 00:00N 29°39' W 093°15'10 2.1
2017-Sep-16 19:15N 29°48' W 093°20'2 3.9
2017-Sep-16 18:50N 29°49' W 093°20'0 0.0
2017-Sep-16 17:13N 29°49' W 093°20'0 0.0
2017-Sep-16 16:55N 29°49' W 093°20'0 0.0
2017-Sep-16 16:28N 29°49' W 093°20'0 0.5
2017-Sep-16 16:00N 29°49' W 093°21'0 0.0
2017-Sep-14 12:39N 29°49' W 093°20'0 0.0
2017-Sep-14 12:25N 29°49' W 093°20'0 0.0
2017-Sep-14 11:59N 29°49' W 093°20'0 0.0
2017-Sep-14 11:20N 29°49' W 093°20'0 0.0
2017-Sep-14 10:37N 29°49' W 093°20'0 0.0
2017-Sep-14 10:19N 29°49' W 093°20'0 0.0
2017-Sep-14 09:47N 29°49' W 093°20'0 0.0
2017-Sep-14 08:56N 29°49' W 093°20'0 0.0
2017-Sep-14 08:05N 29°49' W 093°20'0 0.1
2017-Sep-14 07:58N 29°49' W 093°20'0 0.0
2017-Sep-14 07:03N 29°49' W 093°20'0 0.0
2017-Sep-14 06:38N 29°49' W 093°20'0 0.0
2017-Sep-14 05:32N 29°49' W 093°20'0 0.0
2017-Sep-14 05:23N 29°49' W 093°20'0 0.0
2017-Sep-14 04:59N 29°49' W 093°20'  

Dump ship's entire track history